Fort Leonard Wood, MO (65473)

3:17 PM CST on December 26, 2014 (GMT -0600)
Pulaski County OEM4 | Change Station
CLOSE
Current Station
Personal Weather Station
Location: Crocker, MO
Elevation: 1109 ft
Nearby Weather Stations

Elev 1109 ft 37.91 °N, 92.26 °W | Updated 2 seconds ago

Mostly Cloudy
Mostly Cloudy
56.7 °F
Feels Like 56.7 °F
N
3.8
Wind Variable Wind from WSW
Gusts 4.9 mph

Today
High -- | Low -- °F
--% Chance of Precip.
Yesterday
High -- | Low -- °F
Precip. -- in
7:22 AM 4:56 PM
Waxing Crescent, 29% visible
Pressure 29.99 in
Visibility 10.0 miles
Clouds Few 2500 ft
Mostly Cloudy 3800 ft
Mostly Cloudy 7000 ft
Dew Point 44 °F
Humidity 63%
Rainfall 0.00 in
Snow Depth Not available.
UV 1 out of 12
Pollen 3.60 out of 12
Air Quality Not available.
Flu Activity Not available.
METAR KTBN 262058Z AUTO 17014G18KT 10SM FEW025 BKN038 BKN070 13/09 A2998 RMK AO2 CIG 026 RWY14 SLP156 T01310088 56013

More Conditions Fewer Conditions

Pressure 29.99 in
Visibility 10.0 miles
Clouds Few 2500 ft
Mostly Cloudy 3800 ft
Mostly Cloudy 7000 ft
Dew Point 44 °F
Humidity 63%
Rainfall 0.00 in
Snow Depth Not available.
UV 1 out of 12
Pollen 3.60 out of 12
Air Quality Not available.
Flu Activity Not available.
METAR KTBN 262058Z AUTO 17014G18KT 10SM FEW025 BKN038 BKN070 13/09 A2998 RMK AO2 CIG 026 RWY14 SLP156 T01310088 56013

More Conditions Fewer Conditions

10-Day Weather Forecast

Almanac

Astronomy

Dec. 26, 2014 Rise Set
Actual Time
Civil Twilight
Nautical Twilight
Astronomical Twilight
Moon
Length of Visible Light
Length of Day
Tomorrow will be .
, % of the Moon is Illuminated

Today's Extremes

State Highs State Lows

Community

WunderPhotos

Upload Photos

1,780,716 photos uploaded!

WunderBlogs® & News

Nearby

Air Quality

  Air Quality AQ Index Pollutant
Not available.

Snow Depth

Station Depth Elevation

Earthquake Activity

City Distance Mag. Time & Date
Minimum magnitude displayed is 2.5.

Coastal Water Temperatures

Place Temperature

Nearby Weather Stations